Fort Myers Airport, FL

6:38 PM EDT on June 02, 2015 (GMT -0400)
Page | | Change Station
CLOSE
Current Station
Airport
Location: Fort Myers,
Elevation: 16 ft
Nearby Weather Stations

Elev 16 ft 26.58 °N, 81.86 °W | Updated 7 minutes ago

Rain
Rain
70 °F
Feels Like 70 °F
N
6
Wind Variable Wind from ENE

Today
High -- | Low -- °F
--% Chance of Precip.
Yesterday
High -- | Low -- °F
Precip. -- in
6:33 AM 8:16 PM
Full, 100% visible
Pressure 29.98 in
Visibility 1.0 miles
Clouds Few 1900 ft
Mostly Cloudy 3700 ft
Overcast 5000 ft
Dew Point 69 °F
Humidity 97%
Rainfall 0.06 in
Snow Depth Not available.
UV 1 out of 12
Pollen 1.50 out of 12
Air Quality Not available.
Flu Activity Sporadic
SPECI KFMY 022231Z 06005KT 1SM +RA BR FEW019 BKN037 OVC050 21/21 A2998 RMK AO2 RAB09 P0055 T02110206

More Conditions Fewer Conditions

Pressure 29.98 in
Visibility 1.0 miles
Clouds Few 1900 ft
Mostly Cloudy 3700 ft
Overcast 5000 ft
Dew Point 69 °F
Humidity 97%
Rainfall 0.06 in
Snow Depth Not available.
UV 1 out of 12
Pollen 1.50 out of 12
Air Quality Not available.
Flu Activity Sporadic
SPECI KFMY 022231Z 06005KT 1SM +RA BR FEW019 BKN037 OVC050 21/21 A2998 RMK AO2 RAB09 P0055 T02110206

More Conditions Fewer Conditions

10-Day Weather Forecast

×

Almanac

Astronomy

Jun. 02, 2015 Rise Set
Actual Time
Civil Twilight
Nautical Twilight
Astronomical Twilight
Moon
Length of Visible Light
Length of Day
Tomorrow will be .
, % of the Moon is Illuminated

Today's Extremes

State Highs State Lows

Community

WunderPhotos

Upload Photos

1,826,049 photos uploaded!

WunderBlogs® & News

Nearby

Air Quality

  Air Quality AQ Index Pollutant
Not available.

Snow Depth

Station Depth Elevation

Earthquake Activity

City Distance Mag. Time & Date
Minimum magnitude displayed is 2.5.

Coastal Water Temperatures

Place Temperature

Stations

Nearby Weather Stations

Station Location Temp. Windchill Dew Point Humidity Wind Precip. Elev Updated Type